Time;durP1;ratioP1;P1;durP2;ratioP2;P2;SDS_P1;SDS_P2;PMS_P1;PMS_P2;Temp;Humidity;BMP_temperature;BMP_pressure;BME280_temperature;BME280_humidity;BME280_pressure;Samples;Min_cycle;Max_cycle;Signal;HPM_P1;HPM_P2
2022/07/16 00:03:25;;;;;;;;;;;21.00;56.10;;;;;;5070694;28;20403;-56
2022/07/16 00:05:51;;;;;;;;;;;20.90;55.90;;;;;;5052770;28;19912;-57
2022/07/16 00:08:16;;;;;;;;;;;20.90;56.10;;;;;;5071065;28;20001;-57
2022/07/16 00:10:42;;;;;;;;;;;20.90;56.30;;;;;;5070815;28;19924;-56
2022/07/16 00:13:08;;;;;;;;;;;20.90;56.20;;;;;;5070873;28;19909;-57
2022/07/16 00:15:33;;;;;;;;;;;20.90;56.30;;;;;;5070934;28;19919;-57
2022/07/16 00:20:43;;;;;;;;;;;20.80;56.50;;;;;;5070504;28;20058;-58
2022/07/16 00:23:08;;;;;;;;;;;20.80;56.60;;;;;;5040942;28;20003;-57
2022/07/16 00:25:34;;;;;;;;;;;20.70;57.10;;;;;;5069254;28;19919;-57
2022/07/16 00:28:00;;;;;;;;;;;20.70;57.20;;;;;;5070900;28;19916;-56
2022/07/16 00:30:26;;;;;;;;;;;20.70;57.70;;;;;;5070785;28;19920;-57
2022/07/16 00:32:51;;;;;;;;;;;20.60;57.20;;;;;;5070269;28;19927;-57
2022/07/16 00:35:17;;;;;;;;;;;20.60;57.50;;;;;;5070758;28;19918;-57
2022/07/16 00:37:42;;;;;;;;;;;20.60;57.30;;;;;;5070876;28;19930;-57
2022/07/16 00:40:08;;;;;;;;;;;20.60;57.30;;;;;;5070529;28;19935;-55
2022/07/16 00:42:33;;;;;;;;;;;20.60;57.40;;;;;;5071137;28;19913;-56
2022/07/16 00:44:59;;;;;;;;;;;20.60;57.90;;;;;;5070621;28;20328;-55
2022/07/16 00:47:24;;;;;;;;;;;20.50;57.60;;;;;;5070531;28;20369;-56
2022/07/16 00:49:50;;;;;;;;;;;20.50;58.00;;;;;;5069837;28;19924;-57
2022/07/16 00:52:15;;;;;;;;;;;20.50;57.70;;;;;;5070935;28;20416;-57
2022/07/16 00:54:41;;;;;;;;;;;20.50;57.90;;;;;;5070500;28;20248;-58
2022/07/16 00:57:06;;;;;;;;;;;20.50;58.00;;;;;;5070730;28;19912;-57
2022/07/16 00:59:32;;;;;;;;;;;20.50;58.20;;;;;;5070349;28;19915;-57
2022/07/16 01:01:57;;;;;;;;;;;20.50;57.70;;;;;;5064030;28;19940;-56
2022/07/16 01:04:23;;;;;;;;;;;20.40;57.60;;;;;;5070088;28;20010;-57
2022/07/16 01:06:48;;;;;;;;;;;20.40;58.00;;;;;;5070617;28;19912;-57
2022/07/16 01:09:14;;;;;;;;;;;20.40;58.10;;;;;;5070495;28;20337;-53
2022/07/16 01:11:40;;;;;;;;;;;20.30;58.00;;;;;;5064402;28;19915;-58
2022/07/16 01:14:07;;;;;;;;;;;20.30;57.80;;;;;;5052320;28;19913;-55
2022/07/16 01:16:32;;;;;;;;;;;20.30;58.00;;;;;;5074108;28;19908;-56
2022/07/16 01:18:58;;;;;;;;;;;20.30;59.00;;;;;;5074230;28;19908;-56
2022/07/16 01:21:23;;;;;;;;;;;20.20;58.80;;;;;;5073987;28;19915;-56
2022/07/16 01:23:49;;;;;;;;;;;20.20;58.40;;;;;;5073984;28;19966;-57
2022/07/16 01:26:14;;;;;;;;;;;20.20;58.50;;;;;;5074157;28;19970;-55
2022/07/16 01:28:40;;;;;;;;;;;20.20;59.10;;;;;;5074298;28;20319;-56
2022/07/16 01:31:06;;;;;;;;;;;20.10;58.80;;;;;;5073836;28;20019;-57
2022/07/16 01:33:33;;;;;;;;;;;20.10;59.00;;;;;;5073628;28;20444;-56
2022/07/16 01:35:59;;;;;;;;;;;20.10;58.60;;;;;;5074118;28;19944;-56
2022/07/16 01:38:25;;;;;;;;;;;20.00;58.70;;;;;;5073996;28;19919;-58
2022/07/16 01:40:51;;;;;;;;;;;20.00;59.10;;;;;;5074055;28;19908;-57
2022/07/16 01:43:18;;;;;;;;;;;20.00;58.90;;;;;;5073702;28;20462;-57
2022/07/16 01:45:43;;;;;;;;;;;20.00;59.00;;;;;;5073481;28;19909;-57
2022/07/16 01:48:10;;;;;;;;;;;20.00;59.60;;;;;;5072957;28;19962;-57
2022/07/16 01:50:36;;;;;;;;;;;20.00;58.80;;;;;;5073071;28;19920;-55
2022/07/16 01:53:02;;;;;;;;;;;19.90;58.90;;;;;;5074094;28;19999;-58
2022/07/16 01:55:27;;;;;;;;;;;19.90;59.10;;;;;;5073709;28;19916;-56
2022/07/16 01:57:53;;;;;;;;;;;19.90;59.60;;;;;;5073510;28;19953;-56
2022/07/16 02:00:18;;;;;;;;;;;19.90;59.00;;;;;;5073363;28;19991;-57
2022/07/16 02:02:44;;;;;;;;;;;19.90;59.50;;;;;;5054957;28;19999;-56
2022/07/16 02:05:09;;;;;;;;;;;19.90;59.70;;;;;;5073426;28;20372;-56
2022/07/16 02:07:35;;;;;;;;;;;19.80;58.90;;;;;;5073766;28;19944;-56
2022/07/16 02:10:00;;;;;;;;;;;19.80;59.70;;;;;;5073056;28;20007;-57
2022/07/16 02:12:26;;;;;;;;;;;19.80;59.20;;;;;;5073661;28;20383;-57
2022/07/16 02:14:51;;;;;;;;;;;19.80;59.20;;;;;;5073144;28;19909;-56
2022/07/16 02:17:17;;;;;;;;;;;19.80;59.40;;;;;;5072448;28;19908;-57
2022/07/16 02:19:42;;;;;;;;;;;19.70;59.70;;;;;;5073337;28;19995;-57
2022/07/16 02:22:09;;;;;;;;;;;19.80;59.50;;;;;;5072887;28;20007;-57
2022/07/16 02:24:34;;;;;;;;;;;19.70;59.50;;;;;;5072932;28;19908;-57
2022/07/16 02:27:00;;;;;;;;;;;19.70;59.90;;;;;;5054232;28;20285;-56
2022/07/16 02:29:25;;;;;;;;;;;19.70;60.00;;;;;;5073006;28;19916;-57
2022/07/16 02:31:51;;;;;;;;;;;19.60;59.60;;;;;;5065490;28;19908;-57
2022/07/16 02:34:16;;;;;;;;;;;19.60;59.70;;;;;;5073150;28;19920;-57
2022/07/16 02:36:42;;;;;;;;;;;19.60;60.30;;;;;;5072530;28;19909;-57
2022/07/16 02:39:07;;;;;;;;;;;19.60;60.10;;;;;;5072626;28;20299;-57
2022/07/16 02:41:33;;;;;;;;;;;19.60;59.60;;;;;;5072475;28;20003;-58
2022/07/16 02:43:58;;;;;;;;;;;19.60;59.60;;;;;;5073094;28;20003;-57
2022/07/16 02:46:24;;;;;;;;;;;19.50;59.60;;;;;;5072402;28;20003;-58
2022/07/16 02:48:49;;;;;;;;;;;19.50;60.30;;;;;;5072173;28;19925;-57
2022/07/16 02:51:15;;;;;;;;;;;19.50;60.30;;;;;;5072488;28;19916;-56
2022/07/16 02:53:40;;;;;;;;;;;19.50;60.70;;;;;;5072339;28;20072;-56
2022/07/16 02:56:06;;;;;;;;;;;19.50;61.00;;;;;;5072652;28;19912;-57
2022/07/16 02:58:32;;;;;;;;;;;19.50;60.80;;;;;;5072265;28;20340;-57
2022/07/16 03:00:57;;;;;;;;;;;19.40;61.00;;;;;;5071598;28;19915;-57
2022/07/16 03:03:23;;;;;;;;;;;19.40;61.40;;;;;;5072055;28;19908;-57
2022/07/16 03:05:48;;;;;;;;;;;19.30;60.40;;;;;;5072036;28;19962;-58
2022/07/16 03:08:14;;;;;;;;;;;19.40;60.90;;;;;;5072301;28;19915;-55
2022/07/16 03:10:39;;;;;;;;;;;19.30;61.00;;;;;;5072049;28;19916;-57
2022/07/16 03:13:05;;;;;;;;;;;19.30;61.00;;;;;;5064761;28;19917;-52
2022/07/16 03:15:30;;;;;;;;;;;19.20;60.90;;;;;;5072061;28;20446;-56
2022/07/16 03:17:55;;;;;;;;;;;19.20;61.40;;;;;;5071660;28;19913;-57
2022/07/16 03:20:21;;;;;;;;;;;19.20;61.20;;;;;;5071965;28;20416;-56
2022/07/16 03:22:47;;;;;;;;;;;19.20;60.80;;;;;;5071664;28;19912;-57
2022/07/16 03:25:14;;;;;;;;;;;19.20;60.80;;;;;;5071454;28;19939;-57
2022/07/16 03:27:39;;;;;;;;;;;19.20;61.30;;;;;;5071688;28;19916;-57
2022/07/16 03:30:05;;;;;;;;;;;19.20;61.60;;;;;;5070963;28;19917;-53
2022/07/16 03:32:31;;;;;;;;;;;19.10;61.50;;;;;;5071539;28;19909;-55
2022/07/16 03:34:56;;;;;;;;;;;19.10;61.20;;;;;;5071559;28;20004;-57
2022/07/16 03:37:22;;;;;;;;;;;19.10;61.00;;;;;;5071057;28;19908;-57
2022/07/16 03:39:47;;;;;;;;;;;19.10;61.30;;;;;;5071462;28;19954;-57
2022/07/16 03:42:13;;;;;;;;;;;19.00;61.60;;;;;;5071461;28;19909;-56
2022/07/16 03:44:38;;;;;;;;;;;19.00;61.30;;;;;;5071489;28;19995;-56
2022/07/16 03:47:04;;;;;;;;;;;19.00;62.10;;;;;;5071075;28;20430;-57
2022/07/16 03:49:29;;;;;;;;;;;19.00;61.80;;;;;;5071031;28;19920;-57
2022/07/16 03:51:55;;;;;;;;;;;19.00;62.30;;;;;;5071613;28;19954;-57
2022/07/16 03:54:20;;;;;;;;;;;19.00;61.50;;;;;;5066505;28;19943;-53
2022/07/16 03:56:46;;;;;;;;;;;18.90;62.20;;;;;;5068566;28;19913;-57
2022/07/16 03:59:11;;;;;;;;;;;18.90;62.10;;;;;;5071358;28;20015;-57
2022/07/16 04:01:37;;;;;;;;;;;18.90;62.00;;;;;;5071232;28;19908;-57
2022/07/16 04:04:02;;;;;;;;;;;18.90;62.40;;;;;;5071109;28;19909;-56
2022/07/16 04:06:28;;;;;;;;;;;18.90;62.50;;;;;;5070892;28;19931;-57
2022/07/16 04:08:53;;;;;;;;;;;18.90;62.20;;;;;;5071159;28;19919;-57
2022/07/16 04:11:19;;;;;;;;;;;18.90;62.30;;;;;;5070943;28;19923;-57
2022/07/16 04:13:44;;;;;;;;;;;18.90;62.40;;;;;;5071001;28;20363;-56
2022/07/16 04:16:11;;;;;;;;;;;18.90;62.40;;;;;;5071155;28;19916;-57
2022/07/16 04:18:37;;;;;;;;;;;18.90;61.90;;;;;;5071376;28;19909;-57
2022/07/16 04:21:03;;;;;;;;;;;18.90;62.20;;;;;;5039606;28;19909;-57
2022/07/16 04:23:28;;;;;;;;;;;18.90;62.10;;;;;;5071003;28;19939;-57
2022/07/16 04:25:54;;;;;;;;;;;18.90;62.20;;;;;;5070651;28;20042;-58
2022/07/16 04:28:20;;;;;;;;;;;18.90;62.60;;;;;;5070767;28;19972;-58
2022/07/16 04:30:46;;;;;;;;;;;18.80;63.10;;;;;;5070876;28;19916;-57
2022/07/16 04:33:11;;;;;;;;;;;18.90;63.10;;;;;;5064126;28;19999;-56
2022/07/16 04:35:37;;;;;;;;;;;18.80;63.00;;;;;;5071000;28;19909;-58
2022/07/16 04:38:02;;;;;;;;;;;18.90;63.20;;;;;;5070600;28;19958;-57
2022/07/16 04:40:28;;;;;;;;;;;18.90;63.20;;;;;;5070545;28;19995;-56
2022/07/16 04:42:53;;;;;;;;;;;18.80;63.10;;;;;;5070824;28;20361;-57
2022/07/16 04:45:19;;;;;;;;;;;18.80;63.40;;;;;;5070555;28;19909;-56
2022/07/16 04:47:44;;;;;;;;;;;18.80;63.80;;;;;;5070609;28;20364;-57
2022/07/16 04:50:10;;;;;;;;;;;18.80;63.60;;;;;;5074179;28;19924;-57
2022/07/16 04:52:35;;;;;;;;;;;18.90;63.80;;;;;;5074464;28;19912;-56
2022/07/16 04:55:01;;;;;;;;;;;18.90;63.80;;;;;;5074629;28;20281;-55
2022/07/16 04:57:27;;;;;;;;;;;18.90;63.60;;;;;;5074462;28;19913;-56
2022/07/16 04:59:52;;;;;;;;;;;18.90;63.60;;;;;;5074965;28;20396;-57
2022/07/16 05:05:02;;;;;;;;;;;19.00;63.80;;;;;;5074843;28;19919;-57
2022/07/16 05:07:28;;;;;;;;;;;19.00;64.60;;;;;;5074527;28;19909;-56
2022/07/16 05:09:54;;;;;;;;;;;19.00;64.10;;;;;;5074468;28;20027;-56
2022/07/16 05:12:19;;;;;;;;;;;19.10;64.40;;;;;;5074130;28;19908;-55
2022/07/16 05:14:45;;;;;;;;;;;19.10;64.80;;;;;;5067587;28;19919;-57
2022/07/16 05:17:10;;;;;;;;;;;19.10;64.40;;;;;;5074294;28;19908;-57
2022/07/16 05:19:36;;;;;;;;;;;19.10;64.50;;;;;;5074241;28;20016;-57
2022/07/16 05:22:01;;;;;;;;;;;19.10;64.50;;;;;;5073932;28;20022;-54
2022/07/16 05:24:27;;;;;;;;;;;19.10;64.60;;;;;;5073966;28;19920;-56
2022/07/16 05:26:52;;;;;;;;;;;19.10;64.80;;;;;;5073814;28;20356;-53
2022/07/16 05:29:18;;;;;;;;;;;19.10;64.50;;;;;;5074275;28;19913;-56
2022/07/16 05:31:43;;;;;;;;;;;19.10;64.60;;;;;;5073928;28;19927;-56
2022/07/16 05:34:09;;;;;;;;;;;19.10;64.20;;;;;;5074189;28;19912;-57
2022/07/16 05:36:34;;;;;;;;;;;19.20;64.60;;;;;;5073672;28;19958;-57
2022/07/16 05:39:00;;;;;;;;;;;19.20;64.50;;;;;;5073570;28;19913;-54
2022/07/16 05:41:25;;;;;;;;;;;19.30;64.40;;;;;;5067368;28;19913;-56
2022/07/16 05:43:51;;;;;;;;;;;19.30;64.00;;;;;;5073733;28;19991;-56
2022/07/16 05:46:16;;;;;;;;;;;19.30;64.70;;;;;;5074079;28;19956;-57
2022/07/16 05:48:42;;;;;;;;;;;19.30;64.00;;;;;;5073413;28;19927;-57
2022/07/16 05:51:07;;;;;;;;;;;19.40;64.50;;;;;;5073477;28;20394;-55
2022/07/16 05:53:33;;;;;;;;;;;19.40;64.40;;;;;;5066453;28;19912;-57
2022/07/16 05:55:58;;;;;;;;;;;19.40;64.20;;;;;;5037906;28;19978;-56
2022/07/16 05:58:24;;;;;;;;;;;19.40;64.30;;;;;;5071594;28;19908;-57
2022/07/16 06:00:49;;;;;;;;;;;19.50;64.50;;;;;;5073099;28;19936;-56
2022/07/16 06:03:15;;;;;;;;;;;19.50;64.50;;;;;;5073316;28;20502;-58
2022/07/16 06:05:40;;;;;;;;;;;19.50;64.20;;;;;;5073369;28;19944;-55
2022/07/16 06:08:06;;;;;;;;;;;19.50;64.30;;;;;;5073267;28;19912;-57
2022/07/16 06:10:31;;;;;;;;;;;19.50;64.40;;;;;;5072873;28;20296;-58
2022/07/16 06:12:57;;;;;;;;;;;19.60;64.20;;;;;;5073282;28;19908;-58
2022/07/16 06:15:22;;;;;;;;;;;19.60;64.20;;;;;;5073568;28;19962;-57
2022/07/16 06:17:48;;;;;;;;;;;19.70;64.20;;;;;;5073059;28;20316;-56
2022/07/16 06:20:14;;;;;;;;;;;19.70;64.30;;;;;;5073520;28;19915;-57
2022/07/16 06:22:39;;;;;;;;;;;19.70;64.20;;;;;;5072727;28;20373;-58
2022/07/16 06:25:05;;;;;;;;;;;19.70;64.50;;;;;;5072854;28;19920;-57
2022/07/16 06:27:30;;;;;;;;;;;19.80;64.30;;;;;;5073084;28;19913;-57
2022/07/16 06:29:56;;;;;;;;;;;19.80;64.40;;;;;;5072889;28;19916;-58
2022/07/16 06:32:21;;;;;;;;;;;19.80;64.70;;;;;;5073008;28;19908;-57
2022/07/16 06:34:47;;;;;;;;;;;19.80;64.30;;;;;;5066220;28;20304;-56
2022/07/16 06:37:12;;;;;;;;;;;19.90;64.60;;;;;;5072383;28;19909;-57
2022/07/16 06:39:40;;;;;;;;;;;19.90;64.60;;;;;;5072489;28;19909;-57
2022/07/16 06:42:06;;;;;;;;;;;19.90;64.30;;;;;;5072716;28;20132;-57
2022/07/16 06:44:32;;;;;;;;;;;19.90;64.80;;;;;;5072882;28;20424;-57
2022/07/16 06:46:57;;;;;;;;;;;19.90;64.60;;;;;;5072800;28;20274;-57
2022/07/16 06:49:23;;;;;;;;;;;20.00;64.40;;;;;;5072064;28;19921;-57
2022/07/16 06:51:48;;;;;;;;;;;20.00;64.40;;;;;;5071880;28;20446;-57
2022/07/16 06:54:14;;;;;;;;;;;20.00;64.30;;;;;;5072367;28;20401;-57
2022/07/16 06:56:39;;;;;;;;;;;20.10;63.90;;;;;;5072454;28;19951;-57
2022/07/16 06:59:05;;;;;;;;;;;20.10;63.70;;;;;;5072516;28;19932;-55
2022/07/16 07:01:30;;;;;;;;;;;20.10;63.90;;;;;;5072261;28;19912;-56
2022/07/16 07:03:56;;;;;;;;;;;20.10;64.10;;;;;;5072134;28;19909;-56
2022/07/16 07:06:21;;;;;;;;;;;20.10;63.90;;;;;;5071687;28;19909;-57
2022/07/16 07:08:47;;;;;;;;;;;20.20;63.80;;;;;;5072344;28;20393;-57
2022/07/16 07:11:13;;;;;;;;;;;20.20;63.80;;;;;;5072021;28;20635;-58
2022/07/16 07:13:38;;;;;;;;;;;20.20;63.70;;;;;;5071421;28;19915;-58
2022/07/16 07:16:04;;;;;;;;;;;20.20;63.60;;;;;;5071523;28;19908;-57
2022/07/16 07:18:30;;;;;;;;;;;20.20;63.40;;;;;;5047863;28;19915;-58
2022/07/16 07:20:56;;;;;;;;;;;20.30;63.30;;;;;;5071570;28;19995;-58
2022/07/16 07:23:21;;;;;;;;;;;20.30;63.00;;;;;;5065170;28;19954;-57
2022/07/16 07:25:47;;;;;;;;;;;20.30;62.60;;;;;;5072137;28;20266;-58
2022/07/16 07:28:12;;;;;;;;;;;20.30;62.60;;;;;;5071415;28;19954;-56
2022/07/16 07:30:38;;;;;;;;;;;20.30;62.50;;;;;;5071653;28;19978;-57
2022/07/16 07:33:03;;;;;;;;;;;20.30;62.50;;;;;;5071927;28;20262;-57
2022/07/16 07:35:29;;;;;;;;;;;20.40;62.40;;;;;;5071152;28;19913;-59
2022/07/16 07:37:54;;;;;;;;;;;20.40;62.20;;;;;;5072836;28;19916;-54
2022/07/16 07:40:20;;;;;;;;;;;20.50;62.30;;;;;;5071435;28;19908;-69
2022/07/16 07:42:45;;;;;;;;;;;20.50;62.20;;;;;;5071339;28;19916;-70
2022/07/16 07:45:11;;;;;;;;;;;20.50;62.40;;;;;;5071402;28;19915;-71
2022/07/16 07:47:37;;;;;;;;;;;20.70;62.20;;;;;;5073856;28;19912;-71
2022/07/16 07:50:06;;;;;;;;;;;20.70;62.20;;;;;;5067057;28;19925;-74
2022/07/16 07:52:32;;;;;;;;;;;20.80;62.10;;;;;;5071461;28;19908;-73
2022/07/16 07:54:58;;;;;;;;;;;20.80;61.90;;;;;;5064672;28;19920;-73
2022/07/16 07:57:23;;;;;;;;;;;20.90;62.00;;;;;;5071762;28;19915;-72
2022/07/16 07:59:49;;;;;;;;;;;20.90;61.50;;;;;;5075262;28;19912;-74
2022/07/16 08:02:14;;;;;;;;;;;21.00;61.60;;;;;;5079452;28;19982;-73
2022/07/16 08:04:40;;;;;;;;;;;21.00;61.70;;;;;;5077835;28;20440;-74
2022/07/16 08:07:05;;;;;;;;;;;21.00;61.60;;;;;;5079509;28;19910;-73
2022/07/16 08:09:31;;;;;;;;;;;21.10;61.30;;;;;;5079673;28;20407;-72
2022/07/16 08:11:56;;;;;;;;;;;21.10;61.20;;;;;;5061456;28;20446;-72
2022/07/16 08:14:22;;;;;;;;;;;21.10;61.10;;;;;;5079178;28;19914;-73
2022/07/16 08:16:47;;;;;;;;;;;21.20;61.10;;;;;;5071173;28;20007;-73
2022/07/16 08:19:13;;;;;;;;;;;21.20;60.90;;;;;;5070317;28;19999;-74
2022/07/16 08:21:39;;;;;;;;;;;21.20;60.80;;;;;;5070811;28;19953;-74
2022/07/16 08:26:48;;;;;;;;;;;21.20;60.60;;;;;;5071309;28;19923;-73
2022/07/16 08:29:14;;;;;;;;;;;21.30;60.30;;;;;;5070874;28;19908;-71
2022/07/16 08:31:40;;;;;;;;;;;21.30;60.20;;;;;;5061821;28;19920;-75
2022/07/16 08:34:05;;;;;;;;;;;21.30;59.80;;;;;;5049570;28;19920;-74
2022/07/16 08:36:31;;;;;;;;;;;21.40;60.00;;;;;;5067085;28;19919;-74
2022/07/16 08:38:56;;;;;;;;;;;21.40;59.80;;;;;;5068373;28;20035;-75
2022/07/16 08:41:22;;;;;;;;;;;21.40;59.70;;;;;;5069407;28;20339;-75
2022/07/16 08:43:48;;;;;;;;;;;21.50;60.00;;;;;;5068255;28;19913;-73
2022/07/16 08:46:15;;;;;;;;;;;21.60;59.90;;;;;;5066288;28;19916;-74
2022/07/16 08:48:40;;;;;;;;;;;21.70;59.90;;;;;;5067878;28;20396;-74
2022/07/16 08:51:08;;;;;;;;;;;21.70;59.90;;;;;;5068641;28;19924;-75
2022/07/16 08:53:34;;;;;;;;;;;21.80;59.40;;;;;;5068358;28;20362;-74
2022/07/16 08:56:00;;;;;;;;;;;21.80;59.40;;;;;;5067457;28;19920;-74
2022/07/16 08:58:29;;;;;;;;;;;21.80;58.40;;;;;;5066097;28;20270;-76
2022/07/16 09:00:54;;;;;;;;;;;21.80;58.80;;;;;;5068342;28;19917;-73
2022/07/16 09:03:20;;;;;;;;;;;21.90;58.60;;;;;;5067467;28;20369;-74
2022/07/16 09:05:49;;;;;;;;;;;21.90;58.70;;;;;;5068424;28;19917;-75
2022/07/16 09:08:16;;;;;;;;;;;21.90;58.50;;;;;;5068086;28;19916;-73
2022/07/16 09:10:41;;;;;;;;;;;22.00;58.20;;;;;;5065040;28;19925;-72
2022/07/16 09:13:09;;;;;;;;;;;22.00;58.40;;;;;;5066690;28;19947;-72
2022/07/16 09:15:36;;;;;;;;;;;22.00;58.50;;;;;;5067397;28;20007;-69
2022/07/16 09:18:20;;;;;;;;;;;22.20;58.60;;;;;;5063221;28;19916;-70
2022/07/16 09:20:49;;;;;;;;;;;22.20;58.00;;;;;;5066604;28;19916;-73
2022/07/16 09:23:21;;;;;;;;;;;22.20;58.30;;;;;;5068179;28;19958;-70
2022/07/16 09:25:55;;;;;;;;;;;22.40;58.00;;;;;;5070666;28;19919;-69
2022/07/16 09:28:22;;;;;;;;;;;22.30;57.70;;;;;;5067347;28;19916;-69
2022/07/16 09:30:47;;;;;;;;;;;22.40;58.20;;;;;;5067159;28;19994;-73
2022/07/16 09:33:14;;;;;;;;;;;22.40;57.90;;;;;;5068529;28;19956;-71
2022/07/16 09:35:40;;;;;;;;;;;22.30;57.50;;;;;;5068937;28;19920;-72
2022/07/16 09:38:09;;;;;;;;;;;22.30;57.50;;;;;;5071337;28;19970;-74
2022/07/16 09:40:36;;;;;;;;;;;22.30;58.00;;;;;;5071863;28;20326;-72
2022/07/16 09:43:02;;;;;;;;;;;22.30;58.30;;;;;;5042542;28;20281;-73
2022/07/16 09:45:28;;;;;;;;;;;22.40;58.40;;;;;;5071257;28;19912;-71
2022/07/16 09:47:53;;;;;;;;;;;22.40;58.00;;;;;;5070526;28;19919;-73
2022/07/16 09:50:19;;;;;;;;;;;22.40;58.30;;;;;;5071368;28;19956;-72
2022/07/16 09:52:45;;;;;;;;;;;22.40;57.20;;;;;;5068437;28;19919;-71
2022/07/16 09:55:10;;;;;;;;;;;22.40;57.10;;;;;;5071515;28;19912;-70
2022/07/16 09:57:36;;;;;;;;;;;22.40;57.10;;;;;;5070652;28;19912;-69
2022/07/16 10:00:03;;;;;;;;;;;22.40;57.30;;;;;;5070823;28;19959;-70
2022/07/16 10:02:29;;;;;;;;;;;22.40;57.30;;;;;;5070693;28;20365;-72
2022/07/16 10:04:55;;;;;;;;;;;22.50;57.50;;;;;;5071457;28;19977;-70
2022/07/16 10:07:21;;;;;;;;;;;22.60;57.40;;;;;;5053209;28;20372;-63
2022/07/16 10:09:46;;;;;;;;;;;22.60;57.40;;;;;;5070611;28;19912;-69
2022/07/16 10:12:14;;;;;;;;;;;22.60;57.40;;;;;;5070853;28;19912;-70
2022/07/16 10:14:43;;;;;;;;;;;22.70;57.00;;;;;;5071051;28;19908;-64
2022/07/16 10:17:16;;;;;;;;;;;22.70;56.80;;;;;;5070577;28;19919;-72
2022/07/16 10:19:42;;;;;;;;;;;22.70;55.90;;;;;;5071887;28;19991;-70
2022/07/16 10:22:10;;;;;;;;;;;22.70;55.80;;;;;;5070901;28;20656;-71
2022/07/16 10:24:47;;;;;;;;;;;22.70;55.50;;;;;;5070730;28;20297;-71
2022/07/16 10:27:34;;;;;;;;;;;22.80;55.80;;;;;;5073304;28;20007;-72
2022/07/16 10:30:26;;;;;;;;;;;22.90;55.90;;;;;;5068200;28;20455;-72
2022/07/16 10:33:02;;;;;;;;;;;22.90;55.20;;;;;;5063544;28;19913;-69
2022/07/16 10:35:38;;;;;;;;;;;22.90;55.10;;;;;;5071554;28;19923;-73
2022/07/16 10:38:10;;;;;;;;;;;23.00;54.90;;;;;;5041847;28;19919;-72
2022/07/16 10:40:37;;;;;;;;;;;23.10;55.40;;;;;;5070769;28;20323;-70
2022/07/16 10:43:18;;;;;;;;;;;23.20;54.90;;;;;;5069483;28;19916;-70
2022/07/16 10:45:54;;;;;;;;;;;23.20;54.80;;;;;;5066908;28;20320;-71
2022/07/16 10:48:20;;;;;;;;;;;23.20;54.70;;;;;;5069029;28;19920;-73
2022/07/16 10:51:05;;;;;;;;;;;23.20;54.50;;;;;;5047741;28;20300;-74
2022/07/16 10:53:50;;;;;;;;;;;23.30;54.10;;;;;;5068558;28;19916;-74
2022/07/16 10:56:35;;;;;;;;;;;23.40;53.20;;;;;;5069309;28;19912;-72
2022/07/16 10:59:05;;;;;;;;;;;23.40;53.70;;;;;;5068307;28;20361;-71
2022/07/16 11:01:31;;;;;;;;;;;23.50;53.90;;;;;;5068789;28;20332;-71
2022/07/16 11:03:57;;;;;;;;;;;23.60;53.10;;;;;;5070222;28;19966;-70
2022/07/16 11:06:23;;;;;;;;;;;23.60;53.10;;;;;;5073332;28;19966;-70
2022/07/16 11:08:53;;;;;;;;;;;23.60;54.00;;;;;;5069989;28;19917;-73
2022/07/16 11:11:19;;;;;;;;;;;23.60;53.10;;;;;;5069043;28;20414;-71
2022/07/16 11:13:46;;;;;;;;;;;23.60;53.20;;;;;;5069395;28;19916;-73
2022/07/16 11:16:11;;;;;;;;;;;23.60;53.10;;;;;;5069490;28;19912;-67
2022/07/16 11:18:37;;;;;;;;;;;23.70;52.80;;;;;;5069746;28;19916;-68
2022/07/16 11:21:07;;;;;;;;;;;23.70;52.90;;;;;;5069362;28;19919;-66
2022/07/16 11:23:48;;;;;;;;;;;23.80;53.30;;;;;;5076628;28;19912;-64
2022/07/16 11:26:14;;;;;;;;;;;23.80;53.70;;;;;;5058306;28;19917;-62
2022/07/16 11:29:09;;;;;;;;;;;23.80;53.50;;;;;;5069392;28;20065;-63
2022/07/16 11:31:36;;;;;;;;;;;23.90;53.40;;;;;;5052575;28;20304;-65
2022/07/16 11:34:03;;;;;;;;;;;23.90;53.90;;;;;;5069028;28;19916;-64
2022/07/16 11:36:30;;;;;;;;;;;24.00;52.80;;;;;;5072748;28;19920;-66
2022/07/16 11:39:25;;;;;;;;;;;24.00;52.10;;;;;;5068796;28;19999;-63
2022/07/16 11:41:52;;;;;;;;;;;24.10;52.00;;;;;;5046896;28;19935;-64
2022/07/16 11:44:19;;;;;;;;;;;24.10;51.40;;;;;;5042614;28;20398;-66
2022/07/16 11:46:46;;;;;;;;;;;24.20;51.10;;;;;;5069375;28;20009;-65
2022/07/16 11:49:19;;;;;;;;;;;24.20;51.30;;;;;;5067827;28;19925;-60
2022/07/16 11:51:45;;;;;;;;;;;24.20;51.40;;;;;;5065544;28;19928;-58
2022/07/16 11:54:10;;;;;;;;;;;24.20;51.30;;;;;;5068491;28;19913;-60
2022/07/16 11:56:37;;;;;;;;;;;24.30;51.40;;;;;;5067385;28;20331;-60
2022/07/16 11:59:03;;;;;;;;;;;24.30;51.10;;;;;;5067991;28;19916;-59
2022/07/16 12:01:33;;;;;;;;;;;24.40;50.20;;;;;;5046313;28;19921;-59
2022/07/16 12:03:59;;;;;;;;;;;24.40;50.10;;;;;;5068001;28;19916;-60
2022/07/16 12:06:24;;;;;;;;;;;24.40;50.00;;;;;;5069218;28;19919;-59
2022/07/16 12:08:51;;;;;;;;;;;24.50;49.80;;;;;;5068969;28;20341;-60
2022/07/16 12:11:16;;;;;;;;;;;24.40;49.90;;;;;;5067773;28;20462;-59
2022/07/16 12:13:54;;;;;;;;;;;24.40;50.30;;;;;;5068817;28;20004;-58
2022/07/16 12:16:20;;;;;;;;;;;24.50;50.00;;;;;;5067813;28;19916;-62
2022/07/16 12:18:58;;;;;;;;;;;24.60;49.20;;;;;;5069218;28;19913;-61
2022/07/16 12:21:27;;;;;;;;;;;24.60;49.50;;;;;;5068260;28;19912;-64
2022/07/16 12:23:53;;;;;;;;;;;24.70;49.10;;;;;;5068376;28;19917;-62
2022/07/16 12:26:26;;;;;;;;;;;24.70;49.70;;;;;;5068489;28;19913;-62
2022/07/16 12:28:53;;;;;;;;;;;24.70;49.80;;;;;;5068941;28;20120;-64
2022/07/16 12:31:18;;;;;;;;;;;24.80;49.80;;;;;;5067140;28;19920;-64
2022/07/16 12:33:50;;;;;;;;;;;24.80;49.30;;;;;;5068436;28;20003;-64
2022/07/16 12:36:15;;;;;;;;;;;24.90;49.50;;;;;;5068158;28;19913;-61
2022/07/16 12:38:45;;;;;;;;;;;24.90;49.30;;;;;;5067747;28;19936;-62
2022/07/16 12:41:19;;;;;;;;;;;24.90;49.20;;;;;;5066494;28;19926;-61
2022/07/16 12:43:48;;;;;;;;;;;24.90;48.90;;;;;;5067554;28;20007;-68
2022/07/16 12:46:14;;;;;;;;;;;24.90;49.50;;;;;;5067945;28;20399;-61
2022/07/16 12:48:40;;;;;;;;;;;24.90;49.50;;;;;;5068151;28;19971;-62
2022/07/16 12:51:06;;;;;;;;;;;24.90;49.90;;;;;;5071556;28;19963;-64
2022/07/16 12:53:31;;;;;;;;;;;25.00;49.90;;;;;;5068523;28;19960;-62
2022/07/16 12:58:47;;;;;;;;;;;24.90;49.50;;;;;;5068495;28;20322;-63
2022/07/16 13:01:13;;;;;;;;;;;24.90;49.50;;;;;;5066686;28;20007;-61
2022/07/16 13:03:40;;;;;;;;;;;25.00;49.30;;;;;;5073166;28;20000;-62
2022/07/16 13:06:05;;;;;;;;;;;25.00;49.40;;;;;;5072700;28;19912;-63
2022/07/16 13:08:31;;;;;;;;;;;25.00;49.30;;;;;;5076019;28;19923;-61
2022/07/16 13:10:57;;;;;;;;;;;24.90;49.60;;;;;;5077339;28;19924;-62
2022/07/16 13:13:22;;;;;;;;;;;25.00;49.10;;;;;;5078053;28;19916;-62
2022/07/16 13:15:47;;;;;;;;;;;25.00;49.70;;;;;;5076446;28;19912;-63
2022/07/16 13:18:13;;;;;;;;;;;25.00;49.90;;;;;;5072153;28;19916;-59
2022/07/16 13:20:39;;;;;;;;;;;25.10;48.90;;;;;;5043287;28;19932;-59
2022/07/16 13:23:04;;;;;;;;;;;25.20;48.10;;;;;;5071414;28;20589;-60
2022/07/16 13:25:30;;;;;;;;;;;25.30;48.40;;;;;;5072123;28;20289;-60
2022/07/16 13:27:55;;;;;;;;;;;25.40;48.00;;;;;;5071690;28;20280;-58
2022/07/16 13:30:21;;;;;;;;;;;25.50;48.30;;;;;;5072213;28;19927;-59
2022/07/16 13:32:46;;;;;;;;;;;25.50;48.70;;;;;;5046126;28;19920;-58
2022/07/16 13:35:13;;;;;;;;;;;25.60;48.70;;;;;;5071215;28;20400;-60
2022/07/16 13:37:38;;;;;;;;;;;25.70;48.80;;;;;;5071754;28;19913;-58
2022/07/16 13:40:04;;;;;;;;;;;25.70;49.00;;;;;;5071077;28;20266;-60
2022/07/16 13:42:29;;;;;;;;;;;25.80;47.60;;;;;;5047893;28;19936;-59
2022/07/16 13:44:55;;;;;;;;;;;25.70;48.00;;;;;;5070929;28;19916;-58
2022/07/16 13:47:20;;;;;;;;;;;25.80;47.30;;;;;;5070697;28;20006;-59
2022/07/16 13:49:46;;;;;;;;;;;25.80;46.90;;;;;;5071222;28;19995;-59
2022/07/16 13:52:11;;;;;;;;;;;25.70;47.10;;;;;;5070792;28;19912;-59
2022/07/16 13:54:37;;;;;;;;;;;25.80;46.80;;;;;;5071501;28;19913;-58
2022/07/16 13:59:46;;;;;;;;;;;25.80;46.80;;;;;;5072014;28;19919;-59
2022/07/16 14:02:12;;;;;;;;;;;25.80;46.80;;;;;;5071046;28;20320;-59
2022/07/16 14:04:38;;;;;;;;;;;25.80;46.60;;;;;;5071476;28;20365;-59
2022/07/16 14:07:04;;;;;;;;;;;25.90;47.20;;;;;;5071139;28;20370;-57
2022/07/16 14:09:29;;;;;;;;;;;26.00;46.60;;;;;;5071709;28;19983;-59
2022/07/16 14:11:55;;;;;;;;;;;26.00;46.50;;;;;;5070706;28;19921;-67
2022/07/16 14:14:20;;;;;;;;;;;26.10;46.30;;;;;;5070034;28;19916;-58
2022/07/16 14:16:46;;;;;;;;;;;26.10;46.00;;;;;;5070836;28;19917;-58
2022/07/16 14:19:11;;;;;;;;;;;26.10;46.00;;;;;;5070724;28;19958;-59
2022/07/16 14:21:42;;;;;;;;;;;26.30;45.30;;;;;;5072431;28;19919;-59
2022/07/16 14:24:08;;;;;;;;;;;26.40;45.20;;;;;;5071799;28;19927;-60
2022/07/16 14:26:33;;;;;;;;;;;26.40;45.80;;;;;;5070609;28;19916;-59
2022/07/16 14:28:59;;;;;;;;;;;26.40;45.00;;;;;;5070334;28;19966;-59